sensor_id;sensor_type;location;lat;lon;timestamp;P1;durP1;ratioP1;P2;durP2;ratioP2
72674;SDS011;60752;53.962;9.614;2023-05-10T00:00:45;4.90;;;2.40;;
72674;SDS011;60752;53.962;9.614;2023-05-10T00:30:47;5.07;;;2.20;;
72674;SDS011;60752;53.962;9.614;2023-05-10T01:00:49;5.73;;;2.60;;
72674;SDS011;60752;53.962;9.614;2023-05-10T01:31:05;6.57;;;2.60;;
72674;SDS011;60752;53.962;9.614;2023-05-10T02:01:14;7.17;;;2.90;;
72674;SDS011;60752;53.962;9.614;2023-05-10T02:31:17;6.80;;;2.90;;
72674;SDS011;60752;53.962;9.614;2023-05-10T03:01:20;5.60;;;2.97;;
72674;SDS011;60752;53.962;9.614;2023-05-10T03:31:22;7.90;;;2.77;;
72674;SDS011;60752;53.962;9.614;2023-05-10T04:01:27;11.10;;;2.97;;
72674;SDS011;60752;53.962;9.614;2023-05-10T04:31:29;6.60;;;2.90;;
72674;SDS011;60752;53.962;9.614;2023-05-10T05:01:31;6.30;;;3.40;;
72674;SDS011;60752;53.962;9.614;2023-05-10T05:31:32;7.63;;;3.27;;
72674;SDS011;60752;53.962;9.614;2023-05-10T06:01:34;5.83;;;2.93;;
72674;SDS011;60752;53.962;9.614;2023-05-10T06:31:37;7.87;;;3.27;;
72674;SDS011;60752;53.962;9.614;2023-05-10T07:01:38;8.03;;;3.23;;
72674;SDS011;60752;53.962;9.614;2023-05-10T07:31:41;5.77;;;3.00;;
72674;SDS011;60752;53.962;9.614;2023-05-10T08:01:43;7.53;;;3.00;;
72674;SDS011;60752;53.962;9.614;2023-05-10T08:31:45;7.50;;;3.23;;
72674;SDS011;60752;53.962;9.614;2023-05-10T09:01:47;12.47;;;3.20;;
72674;SDS011;60752;53.962;9.614;2023-05-10T09:31:51;7.17;;;3.93;;
72674;SDS011;60752;53.962;9.614;2023-05-10T10:01:53;9.87;;;4.93;;
72674;SDS011;60752;53.962;9.614;2023-05-10T10:32:01;8.37;;;4.83;;
72674;SDS011;60752;53.962;9.614;2023-05-10T11:02:09;8.37;;;4.93;;
72674;SDS011;60752;53.962;9.614;2023-05-10T11:32:11;11.10;;;4.83;;
72674;SDS011;60752;53.962;9.614;2023-05-10T12:02:13;10.03;;;4.70;;
72674;SDS011;60752;53.962;9.614;2023-05-10T12:32:15;7.57;;;4.53;;
72674;SDS011;60752;53.962;9.614;2023-05-10T13:02:25;7.55;;;3.88;;
72674;SDS011;60752;53.962;9.614;2023-05-10T13:32:29;6.87;;;3.67;;
72674;SDS011;60752;53.962;9.614;2023-05-10T14:02:31;5.50;;;3.13;;
72674;SDS011;60752;53.962;9.614;2023-05-10T14:32:33;7.60;;;4.00;;
72674;SDS011;60752;53.962;9.614;2023-05-10T15:02:34;8.80;;;5.40;;
72674;SDS011;60752;53.962;9.614;2023-05-10T15:32:36;9.25;;;5.88;;
72674;SDS011;60752;53.962;9.614;2023-05-10T16:02:38;9.53;;;5.93;;
72674;SDS011;60752;53.962;9.614;2023-05-10T16:32:40;11.23;;;6.37;;
72674;SDS011;60752;53.962;9.614;2023-05-10T17:02:42;8.20;;;5.13;;
72674;SDS011;60752;53.962;9.614;2023-05-10T17:32:43;8.87;;;5.07;;
72674;SDS011;60752;53.962;9.614;2023-05-10T18:02:45;9.15;;;4.30;;
72674;SDS011;60752;53.962;9.614;2023-05-10T18:32:47;8.30;;;3.87;;
72674;SDS011;60752;53.962;9.614;2023-05-10T19:02:49;6.40;;;2.43;;
72674;SDS011;60752;53.962;9.614;2023-05-10T19:32:50;7.73;;;3.20;;
72674;SDS011;60752;53.962;9.614;2023-05-10T20:02:52;8.67;;;3.90;;
72674;SDS011;60752;53.962;9.614;2023-05-10T20:32:54;11.77;;;5.68;;
72674;SDS011;60752;53.962;9.614;2023-05-10T21:02:56;14.13;;;6.03;;
72674;SDS011;60752;53.962;9.614;2023-05-10T21:32:58;14.63;;;6.53;;
72674;SDS011;60752;53.962;9.614;2023-05-10T22:03:00;15.03;;;5.57;;
72674;SDS011;60752;53.962;9.614;2023-05-10T22:33:02;12.73;;;5.33;;
72674;SDS011;60752;53.962;9.614;2023-05-10T23:03:04;16.15;;;6.70;;
72674;SDS011;60752;53.962;9.614;2023-05-10T23:33:06;22.53;;;8.80;;
